Time;durP1;ratioP1;P1;durP2;ratioP2;P2;SDS_P1;SDS_P2;PMS_P1;PMS_P2;Temp;Humidity;BMP_temperature;BMP_pressure;BME280_temperature;BME280_humidity;BME280_pressure;Samples;Min_cycle;Max_cycle;Signal;HPM_P1;HPM_P2
2022/07/18 00:03:11;;;;;;;9.88;2.10;;;;;;;26.44;48.58;99806.47;10460599;28;20401;-71
2022/07/18 00:08:12;;;;;;;9.43;2.10;;;;;;;26.34;48.49;99809.31;10460171;28;20174;-71
2022/07/18 00:13:13;;;;;;;8.88;1.63;;;;;;;26.37;48.47;99804.09;10460071;28;20037;-71
2022/07/18 00:18:14;;;;;;;8.75;2.25;;;;;;;26.16;48.39;99751.72;10459179;28;20094;-71
2022/07/18 00:23:15;;;;;;;9.05;1.95;;;;;;;26.46;48.46;99809.75;10459573;28;20036;-71
2022/07/18 00:28:15;;;;;;;7.95;2.05;;;;;;;26.21;48.19;99780.84;10459366;28;20045;-71
2022/07/18 00:33:16;;;;;;;5.05;1.70;;;;;;;26.21;48.07;99808.06;10459783;28;20065;-71
2022/07/18 00:38:17;;;;;;;7.30;1.80;;;;;;;26.23;48.42;99816.75;10459166;28;20116;-71
2022/07/18 00:43:18;;;;;;;8.57;1.90;;;;;;;26.31;48.38;99824.31;10458266;28;20037;-71
2022/07/18 00:48:20;;;;;;;6.32;1.92;;;;;;;26.28;48.36;99824.88;10458692;28;20059;-71
2022/07/18 00:53:22;;;;;;;28.30;2.55;;;;;;;26.22;49.39;99815.13;10459303;28;20080;-71
2022/07/18 00:58:23;;;;;;;23.07;3.50;;;;;;;26.10;50.01;99795.63;10458312;28;20037;-71
2022/07/18 01:03:24;;;;;;;80.50;4.97;;;;;;;26.10;50.76;99795.63;10458216;28;20124;-71
2022/07/18 01:08:25;;;;;;;87.95;9.20;;;;;;;25.98;51.85;99793.25;10458080;28;20481;-71
2022/07/18 01:13:26;;;;;;;47.25;5.10;;;;;;;26.00;51.91;99801.16;10458271;28;20127;-71
2022/07/18 01:18:27;;;;;;;17.77;2.40;;;;;;;25.94;50.96;99803.09;10457537;28;20480;-70
2022/07/18 01:23:28;;;;;;;15.60;2.30;;;;;;;25.39;51.37;99721.53;10457928;28;20041;-71
2022/07/18 01:28:28;;;;;;;21.45;3.25;;;;;;;25.75;51.98;99794.75;10456840;28;20051;-71
2022/07/18 01:33:32;;;;;;;15.70;2.50;;;;;;;25.73;52.57;99796.94;10456757;28;20037;-71
2022/07/18 01:38:34;;;;;;;23.80;3.08;;;;;;;25.53;52.98;99778.03;10456021;28;20463;-71
2022/07/18 01:43:41;;;;;;;69.10;6.85;;;;;;;25.35;54.61;99763.97;10454697;28;20162;-70
2022/07/18 01:48:42;;;;;;;13.55;2.65;;;;;;;25.38;53.57;99778.94;10437062;28;20053;-70
2022/07/18 01:53:53;;;;;;;59.85;7.03;;;;;;;25.49;54.09;99794.09;10414316;28;20045;-71
2022/07/18 01:58:54;;;;;;;23.02;3.40;;;;;;;25.24;54.33;99729.78;10414810;28;20052;-71
2022/07/18 02:03:54;;;;;;;52.33;6.00;;;;;;;24.93;54.91;99683.72;10414951;28;20037;-71
2022/07/18 02:08:55;;;;;;;14.18;3.08;;;;;;;25.45;54.58;99801.97;10414756;28;20455;-71
2022/07/18 02:13:56;;;;;;;16.05;3.08;;;;;;;25.38;55.20;99809.63;10414279;28;20405;-71
2022/07/18 02:18:57;;;;;;;228.15;14.13;;;;;;;25.60;56.12;99847.31;10413154;28;20045;-71
2022/07/18 02:23:58;;;;;;;178.07;12.43;;;;;;;25.57;56.45;99857.94;10413441;28;20508;-71
2022/07/18 02:28:59;;;;;;;26.70;4.18;;;;;;;25.47;56.64;99847.94;10413051;28;20052;-71
2022/07/18 02:34:00;;;;;;;195.90;15.77;;;;;;;25.58;57.42;99862.31;10413513;28;20045;-71
2022/07/18 02:39:01;;;;;;;43.90;4.97;;;;;;;25.44;58.33;99865.63;10413457;28;20485;-71
2022/07/18 02:44:02;;;;;;;30.33;3.22;;;;;;;25.28;57.91;99845.84;10413140;28;20040;-71
2022/07/18 02:49:03;;;;;;;10.65;2.45;;;;;;;25.36;57.26;99863.47;10413940;28;20061;-70
2022/07/18 02:54:04;;;;;;;18.63;2.65;;;;;;;25.11;57.86;99828.22;10413003;28;20041;-71
2022/07/18 02:59:04;;;;;;;14.73;2.95;;;;;;;25.36;57.56;99868.09;10412248;28;20056;-71
2022/07/18 03:04:05;;;;;;;14.98;3.03;;;;;;;25.41;56.88;99855.31;10413660;28;20060;-71
2022/07/18 03:09:07;;;;;;;32.90;4.20;;;;;;;24.80;56.60;99698.72;10412968;28;20041;-71
2022/07/18 03:14:08;;;;;;;9.80;2.70;;;;;;;25.37;55.82;99741.94;10411633;28;20072;-70
2022/07/18 03:19:09;;;;;;;17.90;3.25;;;;;;;26.68;54.50;99825.63;10412107;28;20448;-71
2022/07/18 03:24:10;;;;;;;16.45;3.22;;;;;;;27.73;51.70;99777.47;10419743;28;20045;-70
2022/07/18 03:29:12;;;;;;;14.57;2.28;;;;;;;28.20;50.18;99846.66;10443500;28;20049;-70
2022/07/18 03:34:13;;;;;;;11.93;2.90;;;;;;;28.47;49.61;99838.91;10461623;28;20052;-70
2022/07/18 03:39:14;;;;;;;7.72;2.10;;;;;;;28.22;49.43;99866.31;10461511;28;20045;-70
2022/07/18 03:44:15;;;;;;;9.05;2.25;;;;;;;27.93;49.25;99852.81;10460613;28;20037;-70
2022/07/18 03:49:15;;;;;;;9.30;2.53;;;;;;;27.64;49.76;99858.38;10461627;28;20063;-71
2022/07/18 03:54:16;;;;;;;7.18;2.10;;;;;;;27.42;49.94;99856.19;10461376;28;20480;-70
2022/07/18 03:59:17;;;;;;;10.55;2.90;;;;;;;27.33;49.98;99863.41;10459427;28;20040;-71
2022/07/18 04:04:18;;;;;;;11.23;2.85;;;;;;;27.40;50.01;99876.69;10460602;28;20041;-71
2022/07/18 04:09:19;;;;;;;7.90;2.47;;;;;;;27.45;49.79;99868.44;10460050;28;20045;-72
2022/07/18 04:14:22;;;;;;;15.95;3.42;;;;;;;27.68;50.07;99883.97;10460493;28;20040;-70
2022/07/18 04:19:24;;;;;;;;;;;;;;;28.06;48.87;99894.97;10454343;28;20048;-71
2022/07/18 04:24:25;;;;;;;53.23;5.10;;;;;;;28.92;47.74;99809.91;10439686;28;19970;-70
2022/07/18 04:29:26;;;;;;;10.73;2.75;;;;;;;31.10;43.83;99889.31;10458462;28;20562;-71
2022/07/18 04:34:26;;;;;;;10.43;2.65;;;;;;;31.08;42.87;99892.41;10459252;28;20037;-70
2022/07/18 04:39:27;;;;;;;6.93;2.20;;;;;;;31.27;41.65;99881.16;10456886;28;20479;-70
2022/07/18 04:44:28;;;;;;;11.00;2.95;;;;;;;30.95;42.56;99881.50;10454926;28;20083;-71
2022/07/18 04:49:29;;;;;;;6.95;2.40;;;;;;;31.14;41.72;99868.34;10459063;28;20061;-70
2022/07/18 04:54:30;;;;;;;6.68;2.58;;;;;;;31.55;40.30;99884.50;10458464;28;20040;-70
2022/07/18 04:59:30;;;;;;;16.55;2.65;;;;;;;31.73;40.56;99890.81;10458287;28;20047;-70
2022/07/18 05:04:31;;;;;;;10.80;2.65;;;;;;;31.67;40.49;99881.13;10457996;28;20512;-70
2022/07/18 05:09:33;;;;;;;5.38;2.60;;;;;;;31.43;41.58;99883.50;10457939;28;20052;-70
2022/07/18 05:14:34;;;;;;;17.70;2.97;;;;;;;31.72;41.72;99911.19;10457824;28;20135;-71
2022/07/18 05:19:35;;;;;;;7.95;2.78;;;;;;;31.31;40.29;99840.97;10457261;28;20049;-69
2022/07/18 05:24:35;;;;;;;13.73;2.40;;;;;;;31.47;39.55;99844.13;10456682;28;20086;-69
2022/07/18 05:29:36;;;;;;;7.10;2.35;;;;;;;30.67;41.29;99846.03;10457081;28;20067;-70
2022/07/18 05:34:37;;;;;;;8.93;2.40;;;;;;;30.84;41.33;99903.72;10457057;28;20404;-70
2022/07/18 05:39:38;;;;;;;15.65;2.58;;;;;;;31.27;40.06;99883.91;10457041;28;20127;-69
2022/07/18 05:44:39;;;;;;;26.35;2.53;;;;;;;30.76;39.24;99756.38;10456513;28;20147;-69
2022/07/18 05:49:40;;;;;;;9.52;2.72;;;;;;;31.51;39.26;99833.31;10454297;28;20068;-70
2022/07/18 05:54:41;;;;;;;11.45;2.50;;;;;;;31.99;39.86;99876.34;10456048;28;20443;-71
2022/07/18 05:59:42;;;;;;;8.73;2.47;;;;;;;30.97;39.50;99769.56;10456760;28;20106;-69
2022/07/18 06:04:42;;;;;;;13.18;2.63;;;;;;;31.20;40.45;99853.34;10456297;28;20032;-69
2022/07/18 06:09:43;;;;;;;10.38;2.47;;;;;;;30.86;41.96;99887.75;10455496;28;20428;-69
2022/07/18 06:14:44;;;;;;;5.32;2.60;;;;;;;31.15;41.64;99900.16;10455365;28;20044;-69
2022/07/18 06:19:45;;;;;;;11.07;2.78;;;;;;;31.33;41.16;99871.66;10454866;28;20056;-69
2022/07/18 06:24:45;;;;;;;13.30;2.63;;;;;;;31.67;40.62;99892.09;10455071;28;20485;-69
2022/07/18 06:29:46;;;;;;;17.98;2.53;;;;;;;31.77;38.89;99841.56;10454121;28;20051;-70
2022/07/18 06:34:47;;;;;;;15.50;2.53;;;;;;;31.84;38.33;99841.91;10454259;28;20079;-70
2022/07/18 06:39:48;;;;;;;9.27;2.30;;;;;;;31.68;39.05;99887.41;10454565;28;20037;-71
2022/07/18 06:44:49;;;;;;;7.10;2.13;;;;;;;31.47;39.21;99890.78;10454058;28;20049;-69
2022/07/18 06:49:49;;;;;;;9.98;2.80;;;;;;;31.53;38.75;99869.47;10452956;28;20138;-69
2022/07/18 06:54:50;;;;;;;13.43;2.30;;;;;;;31.53;39.25;99825.53;10454933;28;20127;-69
2022/07/18 06:59:53;;;;;;;17.75;2.00;;;;;;;32.13;38.46;99881.66;10454183;28;20444;-70
2022/07/18 07:04:54;;;;;;;4.82;1.83;;;;;;;32.45;37.66;99877.66;10460399;28;20045;-70
2022/07/18 07:09:55;;;;;;;9.32;2.45;;;;;;;32.70;37.29;99856.75;10462433;28;20412;-70
2022/07/18 07:14:56;;;;;;;46.92;4.20;;;;;;;32.85;37.54;99863.66;10461269;28;20454;-70
2022/07/18 07:19:56;;;;;;;30.20;3.58;;;;;;;32.68;36.77;99796.56;10461625;28;20045;-70
2022/07/18 07:24:57;;;;;;;7.68;2.05;;;;;;;32.48;35.76;99737.59;10461794;28;20511;-70
2022/07/18 07:29:58;;;;;;;8.40;2.10;;;;;;;33.02;36.31;99805.81;10461007;28;20051;-69
2022/07/18 07:34:59;;;;;;;5.18;1.83;;;;;;;32.91;35.48;99791.59;10461669;28;20037;-70
2022/07/18 07:39:59;;;;;;;10.60;2.28;;;;;;;33.62;36.10;99864.44;10461490;28;20041;-70
2022/07/18 07:45:00;;;;;;;6.78;1.92;;;;;;;33.25;35.77;99795.34;10461316;28;20037;-69
2022/07/18 07:50:02;;;;;;;21.08;2.42;;;;;;;33.81;35.34;99883.28;10461050;28;20457;-69
2022/07/18 07:55:04;;;;;;;18.70;2.80;;;;;;;34.02;34.67;99880.53;10460283;28;20063;-70
2022/07/18 08:00:08;;;;;;;15.60;3.10;;;;;;;34.04;34.09;99876.34;10460217;28;20160;-70
2022/07/18 08:05:09;;;;;;;14.63;1.77;;;;;;;33.93;34.08;99855.00;10461160;28;20041;-71
2022/07/18 08:10:10;;;;;;;13.13;2.42;;;;;;;34.23;33.34;99856.53;10460987;28;20044;-70
2022/07/18 08:15:10;;;;;;;7.80;2.17;;;;;;;34.30;33.14;99864.25;10459333;28;20076;-71
2022/07/18 08:20:12;;;;;;;8.27;1.83;;;;;;;34.54;33.21;99874.59;10460404;28;20055;-70
2022/07/18 08:25:12;;;;;;;9.73;1.90;;;;;;;34.72;32.77;99878.78;10459802;28;20452;-70
2022/07/18 08:30:13;;;;;;;9.10;1.73;;;;;;;34.45;32.43;99866.38;10459667;28;20102;-70
2022/07/18 08:35:14;;;;;;;8.18;1.95;;;;;;;34.56;32.19;99894.38;10459220;28;20496;-70
2022/07/18 08:40:15;;;;;;;9.90;1.65;;;;;;;34.71;32.33;99884.66;10458544;28;20037;-70
2022/07/18 08:45:17;;;;;;;9.07;2.13;;;;;;;34.82;31.94;99880.28;10458052;28;20049;-70
2022/07/18 08:50:18;;;;;;;20.73;2.30;;;;;;;34.93;31.69;99873.16;10458918;28;20068;-72
2022/07/18 08:55:19;;;;;;;5.23;1.60;;;;;;;34.88;31.48;99881.69;10459635;28;20295;-70
2022/07/18 09:00:23;;;;;;;15.07;1.85;;;;;;;34.81;31.71;99892.47;10458378;28;20041;-71
2022/07/18 09:05:24;;;;;;;9.15;2.13;;;;;;;34.59;31.83;99851.50;10457600;28;20420;-70
2022/07/18 09:10:50;;;;;;;5.78;1.63;;;;;;;34.78;31.82;99886.84;10457521;28;20045;-70
2022/07/18 09:16:09;;;;;;;9.65;1.77;;;;;;;34.77;32.61;99897.06;10456547;28;20428;-70
2022/07/18 09:21:12;;;;;;;5.55;1.70;;;;;;;34.43;31.84;99830.06;10456923;28;20040;-70
2022/07/18 09:26:33;;;;;;;9.70;1.60;;;;;;;34.74;31.41;99900.50;10456744;28;20041;-70
2022/07/18 09:31:34;;;;;;;6.78;1.80;;;;;;;34.67;31.23;99834.03;10457569;28;20504;-70
2022/07/18 09:36:55;;;;;;;11.73;1.73;;;;;;;35.20;30.20;99893.81;10456760;28;20123;-71
2022/07/18 09:42:13;;;;;;;4.80;1.50;;;;;;;34.95;30.32;99887.44;10456823;28;20128;-71
2022/07/18 09:47:14;;;;;;;20.15;2.28;;;;;;;35.11;30.59;99892.31;10456440;28;20563;-71
2022/07/18 09:52:14;;;;;;;3.00;1.42;;;;;;;34.73;30.30;99832.66;10456395;28;20056;-69
2022/07/18 09:57:26;;;;;;;7.07;1.38;;;;;;;34.88;30.29;99864.31;10456688;28;20055;-70
2022/07/18 10:02:28;;;;;;;10.13;1.75;;;;;;;34.37;30.12;99773.50;10454206;28;20042;-70
2022/07/18 10:07:28;;;;;;;11.27;1.73;;;;;;;34.89;30.89;99821.78;10455212;28;20762;-75
2022/07/18 10:12:30;;;;;;;8.98;1.80;;;;;;;35.38;30.94;99886.09;10454826;28;20523;-69
2022/07/18 10:17:31;;;;;;;7.40;1.60;;;;;;;35.37;30.77;99894.75;10455928;28;20493;-69
2022/07/18 10:22:38;;;;;;;11.88;1.90;;;;;;;35.51;30.51;99897.13;10455786;28;20268;-68
2022/07/18 10:28:04;;;;;;;5.85;1.50;;;;;;;35.62;30.43;99895.56;10453252;28;20049;-69
2022/07/18 10:33:37;;;;;;;8.57;1.60;;;;;;;35.71;30.26;99896.22;10454928;28;20059;-69
2022/07/18 10:38:39;;;;;;;7.95;1.88;;;;;;;35.53;30.39;99903.13;10455381;28;20037;-69
2022/07/18 10:43:44;;;;;;;11.45;3.08;;;;;;;35.31;30.52;99860.22;10454610;28;20033;-72
2022/07/18 10:48:53;;;;;;;24.35;2.40;;;;;;;35.59;31.06;99904.53;10454772;28;20072;-70
2022/07/18 10:54:03;;;;;;;5.43;1.50;;;;;;;35.62;30.63;99906.59;10453758;28;20045;-69
2022/07/18 10:59:20;;;;;;;10.98;1.63;;;;;;;35.78;30.82;99920.50;10453920;28;20041;-70
2022/07/18 11:04:32;;;;;;;15.00;1.60;;;;;;;35.26;30.79;99808.78;10454694;28;20087;-70
2022/07/18 11:09:40;;;;;;;12.02;2.33;;;;;;;35.67;30.40;99875.97;10454168;28;20172;-70
2022/07/18 11:15:10;;;;;;;53.30;5.00;;;;;;;35.99;29.88;99914.81;10454160;28;20071;-74
2022/07/18 11:20:37;;;;;;;12.97;2.10;;;;;;;36.04;29.52;99911.84;10454457;28;20078;-70
2022/07/18 11:25:38;;;;;;;8.77;1.70;;;;;;;35.85;30.10;99899.44;10453635;28;20307;-70
2022/07/18 11:30:39;;;;;;;5.30;1.73;;;;;;;35.87;29.91;99924.78;10453073;28;20044;-70
2022/07/18 11:35:40;;;;;;;6.70;1.58;;;;;;;35.36;30.11;99832.34;10454961;28;20044;-69
2022/07/18 11:40:51;;;;;;;9.50;1.98;;;;;;;35.85;30.63;99910.47;10453293;28;20044;-70
2022/07/18 11:46:09;;;;;;;2.95;1.48;;;;;;;35.81;30.04;99922.56;10453906;28;20053;-69
2022/07/18 11:51:20;;;;;;;10.48;1.75;;;;;;;35.33;29.40;99864.25;10457842;28;20044;-69
2022/07/18 11:56:22;;;;;;;5.57;1.57;;;;;;;35.60;29.60;99918.03;10433259;28;20562;-71
2022/07/18 12:01:29;;;;;;;13.45;2.03;;;;;;;35.04;30.11;99895.66;10439452;28;20040;-70
2022/07/18 12:06:30;;;;;;;2.53;1.23;;;;;;;35.03;30.02;99920.78;10459921;28;20049;-70
2022/07/18 12:11:34;;;;;;;3.83;1.40;;;;;;;34.97;30.11;99948.63;10442881;28;20047;-70
2022/07/18 12:16:42;;;;;;;9.63;2.50;;;;;;;34.64;30.72;99932.09;10453434;28;20131;-72
2022/07/18 12:21:47;;;;;;;15.60;2.20;;;;;;;35.26;31.01;99946.84;10420483;28;20043;-71
2022/07/18 12:26:48;;;;;;;2.67;1.35;;;;;;;35.67;30.15;99945.06;10442692;28;20417;-70
2022/07/18 12:31:49;;;;;;;6.18;1.50;;;;;;;35.31;29.46;99935.59;10444792;28;20045;-70
2022/07/18 12:36:55;;;;;;;16.15;1.90;;;;;;;34.59;30.15;99917.72;10452250;28;20488;-72
2022/07/18 12:41:57;;;;;;;8.63;1.40;;;;;;;34.52;30.46;99959.59;10452231;28;20070;-77
2022/07/18 12:46:58;;;;;;;3.10;1.15;;;;;;;34.65;30.62;99955.78;10450580;28;20061;-70
2022/07/18 12:51:59;;;;;;;4.55;1.65;;;;;;;35.14;30.25;99944.06;10458266;28;20041;-70
2022/07/18 12:57:00;;;;;;;3.15;1.20;;;;;;;34.79;30.15;99941.66;10430921;28;20044;-68
2022/07/18 13:02:00;;;;;;;16.58;2.80;;;;;;;34.65;30.72;99944.75;10396006;28;20065;-72
2022/07/18 13:07:01;;;;;;;25.98;2.97;;;;;;;35.09;30.47;99947.88;10350611;28;20099;-68
2022/07/18 13:12:02;;;;;;;12.52;1.90;;;;;;;35.11;29.96;99887.59;10343041;28;20037;-71
2022/07/18 13:17:03;;;;;;;15.77;1.70;;;;;;;35.26;29.77;99952.38;10375453;28;20618;-67
2022/07/18 13:22:04;;;;;;;7.25;1.50;;;;;;;34.65;30.82;99922.66;10374228;28;20057;-68
2022/07/18 13:27:05;;;;;;;4.95;1.48;;;;;;;34.14;30.79;99896.34;10375507;28;20088;-68
2022/07/18 13:32:08;;;;;;;4.72;1.55;;;;;;;34.29;31.01;99961.91;10375189;28;20183;-70
2022/07/18 13:37:09;;;;;;;6.80;1.60;;;;;;;34.35;30.76;99921.16;10389321;28;20104;-69
2022/07/18 13:42:10;;;;;;;6.45;1.35;;;;;;;34.36;31.01;99937.34;10374767;28;20894;-70
2022/07/18 13:47:15;;;;;;;7.35;1.30;;;;;;;34.24;31.34;99953.84;10374445;28;20057;-70
2022/07/18 13:52:15;;;;;;;10.55;1.50;;;;;;;34.16;31.68;99958.25;10374917;28;20045;-69
2022/07/18 13:57:16;;;;;;;6.32;1.40;;;;;;;34.17;31.47;99935.06;10374278;28;20444;-69
2022/07/18 14:02:18;;;;;;;6.22;1.52;;;;;;;34.27;31.47;99933.84;10372968;28;20405;-70
2022/07/18 14:07:19;;;;;;;2.60;1.30;;;;;;;33.99;31.74;99948.16;10373649;28;20041;-68
2022/07/18 14:12:20;;;;;;;14.98;1.75;;;;;;;33.91;32.29;99965.53;10373020;28;20513;-69
2022/07/18 14:17:20;;;;;;;6.95;1.45;;;;;;;33.75;31.83;99943.28;10372896;28;20486;-69
2022/07/18 14:22:21;;;;;;;23.52;1.90;;;;;;;34.00;31.89;99946.19;10372582;28;20557;-70
2022/07/18 14:27:22;;;;;;;9.00;1.80;;;;;;;33.68;32.22;99909.91;10373185;28;20073;-70
2022/07/18 14:32:23;;;;;;;10.25;1.80;;;;;;;33.57;32.56;99901.25;10369248;28;20121;-71
2022/07/18 14:37:24;;;;;;;6.75;1.85;;;;;;;33.56;33.58;99951.16;10370898;28;20525;-69
2022/07/18 14:42:26;;;;;;;7.90;1.60;;;;;;;33.35;34.29;99989.59;10371782;28;20038;-69
2022/07/18 14:47:26;;;;;;;6.60;1.63;;;;;;;32.19;35.00;99848.22;10349139;28;20066;-70
2022/07/18 14:52:27;;;;;;;6.75;2.28;;;;;;;32.61;35.46;99979.66;10332039;28;20046;-71
2022/07/18 14:57:28;;;;;;;25.75;2.67;;;;;;;32.71;35.80;100015.13;10331391;28;20049;-70
2022/07/18 15:02:29;;;;;;;7.32;1.40;;;;;;;32.42;35.84;100018.47;10331729;28;20451;-69
2022/07/18 15:07:30;;;;;;;5.82;1.70;;;;;;;32.11;36.49;100037.84;10331889;28;20513;-70
2022/07/18 15:12:32;;;;;;;11.65;1.60;;;;;;;31.91;36.81;100036.47;10331049;28;20038;-70
2022/07/18 15:17:32;;;;;;;5.90;1.65;;;;;;;31.76;37.39;100048.66;10331292;28;20047;-70
2022/07/18 15:22:34;;;;;;;8.32;1.58;;;;;;;31.37;37.89;100020.88;10331985;28;20057;-69
2022/07/18 15:27:35;;;;;;;10.75;2.20;;;;;;;31.37;39.21;100058.47;10371134;28;20108;-69
2022/07/18 15:32:35;;;;;;;10.52;2.10;;;;;;;31.06;40.80;100075.69;10379634;28;20108;-70
2022/07/18 15:37:36;;;;;;;12.70;1.85;;;;;;;30.51;41.53;100044.88;10379831;28;20033;-69
2022/07/18 15:42:37;;;;;;;8.77;2.00;;;;;;;30.50;42.83;100082.44;10378725;28;20046;-69
2022/07/18 15:47:38;;;;;;;14.02;2.65;;;;;;;30.19;43.47;100063.88;10379244;28;20152;-69
2022/07/18 15:52:38;;;;;;;5.70;2.03;;;;;;;30.11;44.23;100088.44;10379024;28;20068;-69
2022/07/18 15:57:39;;;;;;;11.88;2.33;;;;;;;29.89;44.73;100092.69;10378465;28;20450;-70
2022/07/18 16:02:40;;;;;;;7.93;2.38;;;;;;;29.73;45.38;100094.06;10378895;28;20379;-68
2022/07/18 16:07:41;;;;;;;11.18;2.55;;;;;;;29.50;46.00;100095.84;10379185;28;20448;-68
2022/07/18 16:12:42;;;;;;;98.28;7.25;;;;;;;29.08;45.96;100046.47;10378246;28;20041;-69
2022/07/18 16:17:42;;;;;;;9.85;2.15;;;;;;;28.90;46.29;100053.56;10377521;28;20069;-68
2022/07/18 16:22:43;;;;;;;5.75;2.03;;;;;;;29.18;46.52;100113.06;10378076;28;20060;-69
2022/07/18 16:27:45;;;;;;;16.65;2.90;;;;;;;29.13;46.26;100122.94;10377343;28;20046;-69
2022/07/18 16:32:46;;;;;;;20.60;2.78;;;;;;;28.95;46.35;100121.00;10377288;28;20125;-69
2022/07/18 16:37:48;;;;;;;8.95;2.88;;;;;;;28.90;46.49;100123.84;10376633;28;20046;-69
2022/07/18 16:42:49;;;;;;;10.98;3.03;;;;;;;28.79;46.37;100125.09;10377062;28;20106;-68
2022/07/18 16:47:50;;;;;;;10.90;2.92;;;;;;;28.67;46.57;100131.78;10367706;28;20066;-69
2022/07/18 16:52:51;;;;;;;9.15;2.75;;;;;;;28.20;46.96;100078.00;10374239;28;20264;-69
2022/07/18 16:57:52;;;;;;;8.38;2.42;;;;;;;28.51;46.84;100145.94;10376494;28;20046;-70
2022/07/18 17:02:53;;;;;;;10.60;2.63;;;;;;;28.38;46.97;100147.44;10358892;28;20482;-69
2022/07/18 17:07:54;;;;;;;6.90;2.42;;;;;;;28.23;46.92;100141.03;10350055;28;20140;-68
2022/07/18 17:12:55;;;;;;;8.20;2.67;;;;;;;28.27;46.84;100162.31;10367405;28;20045;-68
2022/07/18 17:17:58;;;;;;;10.13;2.78;;;;;;;28.20;47.14;100162.66;10360695;28;20046;-68
2022/07/18 17:22:59;;;;;;;9.85;3.08;;;;;;;28.14;47.55;100181.00;10368337;28;20517;-68
2022/07/18 17:28:02;;;;;;;10.52;3.22;;;;;;;28.00;48.06;100171.91;10368539;28;20045;-68
2022/07/18 17:33:03;;;;;;;9.30;3.27;;;;;;;27.95;48.43;100175.47;10360377;28;20061;-68
2022/07/18 17:38:05;;;;;;;6.45;2.70;;;;;;;27.75;48.71;100161.97;10367976;28;20474;-68
2022/07/18 17:43:07;;;;;;;7.13;3.20;;;;;;;27.70;48.77;100176.50;10364709;28;20077;-68
2022/07/18 17:48:08;;;;;;;7.55;2.92;;;;;;;27.62;48.88;100179.84;10364956;28;20410;-69
2022/07/18 17:53:09;;;;;;;9.48;2.80;;;;;;;27.63;49.11;100205.22;10371359;28;20045;-68
2022/07/18 17:58:10;;;;;;;5.15;3.00;;;;;;;27.59;49.41;100207.69;10373552;28;20104;-68
2022/07/18 18:03:11;;;;;;;14.10;3.20;;;;;;;26.50;49.75;100074.22;10373237;28;20041;-68
2022/07/18 18:08:14;;;;;;;5.78;3.05;;;;;;;27.12;49.53;100221.88;10373117;28;20046;-68
2022/07/18 18:13:15;;;;;;;19.02;3.50;;;;;;;27.10;49.21;100216.69;10372799;28;20449;-67
2022/07/18 18:18:16;;;;;;;13.02;3.28;;;;;;;27.02;48.68;100220.03;10371837;28;20096;-67
2022/07/18 18:23:17;;;;;;;7.15;3.03;;;;;;;26.65;48.87;100185.84;10372681;28;20502;-68
2022/07/18 18:28:19;;;;;;;8.65;3.20;;;;;;;26.80;48.85;100226.69;10363170;28;20053;-68
2022/07/18 18:33:19;;;;;;;6.30;3.28;;;;;;;26.64;48.81;100230.53;10371175;28;20052;-68
2022/07/18 18:38:20;;;;;;;15.90;3.88;;;;;;;26.56;49.16;100231.09;10370472;28;20038;-68
2022/07/18 18:43:22;;;;;;;9.23;3.42;;;;;;;26.48;49.37;100237.91;10371354;28;20132;-68
2022/07/18 18:48:23;;;;;;;11.00;3.60;;;;;;;26.18;49.52;100206.13;10370668;28;20062;-68
2022/07/18 18:53:23;;;;;;;9.93;3.63;;;;;;;26.30;49.47;100233.88;10369958;28;20045;-69
2022/07/18 18:58:25;;;;;;;13.98;3.35;;;;;;;26.29;49.97;100224.03;10370471;28;20092;-68
2022/07/18 19:03:26;;;;;;;6.68;3.67;;;;;;;26.23;50.09;100227.88;10371073;28;20489;-68
2022/07/18 19:08:27;;;;;;;7.68;3.25;;;;;;;26.09;50.23;100213.22;10367977;28;20046;-67
2022/07/18 19:13:28;;;;;;;9.55;3.55;;;;;;;26.05;50.33;100190.31;10369000;28;20037;-68
2022/07/18 19:18:29;;;;;;;8.18;3.53;;;;;;;26.13;49.96;100198.75;10370114;28;20107;-68
2022/07/18 19:23:30;;;;;;;14.23;3.55;;;;;;;25.26;49.94;100081.81;10363827;28;20512;-68
2022/07/18 19:28:32;;;;;;;9.95;3.78;;;;;;;26.10;50.04;100231.16;10370977;28;20506;-67
2022/07/18 19:33:34;;;;;;;13.30;3.60;;;;;;;26.14;49.76;100243.94;10370066;28;20413;-68
2022/07/18 19:38:35;;;;;;;5.85;3.75;;;;;;;26.05;49.77;100242.84;10386336;28;20046;-68
2022/07/18 19:43:36;;;;;;;11.32;3.92;;;;;;;25.96;49.71;100242.59;10370813;28;20042;-68
2022/07/18 19:48:40;;;;;;;8.27;3.45;;;;;;;25.82;49.83;100222.47;10385305;28;20506;-68
2022/07/18 19:53:42;;;;;;;6.65;3.53;;;;;;;25.47;49.85;100177.81;10370015;28;20053;-68
2022/07/18 19:58:42;;;;;;;7.47;3.70;;;;;;;25.90;50.04;100276.34;10370367;28;20453;-68
2022/07/18 20:03:43;;;;;;;10.50;3.70;;;;;;;25.95;50.15;100284.50;10356223;28;20100;-68
2022/07/18 20:08:45;;;;;;;6.82;3.58;;;;;;;25.79;50.32;100269.25;10370515;28;20073;-68
2022/07/18 20:13:46;;;;;;;7.88;3.40;;;;;;;25.87;50.36;100298.66;10377298;28;20453;-68
2022/07/18 20:18:47;;;;;;;7.43;3.75;;;;;;;25.85;50.65;100302.75;10377349;28;20096;-69
2022/07/18 20:23:48;;;;;;;6.82;3.38;;;;;;;25.47;50.50;100231.38;10377907;28;20037;-68
2022/07/18 20:28:48;;;;;;;6.75;3.58;;;;;;;25.83;50.16;100289.41;10376686;28;20049;-68
2022/07/18 20:33:49;;;;;;;7.97;4.28;;;;;;;25.75;50.95;100287.19;10377514;28;20511;-68
2022/07/18 20:38:50;;;;;;;7.75;3.40;;;;;;;25.59;51.52;100274.66;10377252;28;20064;-69
2022/07/18 20:43:51;;;;;;;9.15;3.78;;;;;;;25.49;52.25;100270.84;10376687;28;20112;-67
2022/07/18 20:48:52;;;;;;;16.30;4.05;;;;;;;25.32;52.66;100248.50;10377106;28;20054;-68
2022/07/18 20:53:53;;;;;;;8.63;4.22;;;;;;;25.15;53.97;100226.13;10376793;28;20497;-68
2022/07/18 20:58:54;;;;;;;13.73;4.20;;;;;;;25.11;55.16;100250.28;10376471;28;20137;-68
2022/07/18 21:03:55;;;;;;;11.23;4.15;;;;;;;24.93;56.01;100253.50;10376566;28;20129;-70
2022/07/18 21:08:55;;;;;;;8.85;4.40;;;;;;;24.37;57.03;100207.81;10375796;28;20053;-68
2022/07/18 21:13:56;;;;;;;29.13;4.70;;;;;;;24.40;57.83;100267.00;10375746;28;20069;-67
2022/07/18 21:18:57;;;;;;;11.18;4.32;;;;;;;24.41;59.04;100312.13;10375703;28;20041;-68
2022/07/18 21:23:58;;;;;;;10.45;4.43;;;;;;;24.20;59.57;100313.00;10375283;28;20041;-68
2022/07/18 21:28:58;;;;;;;9.63;4.47;;;;;;;24.12;59.99;100293.41;10376177;28;20145;-68
2022/07/18 21:34:02;;;;;;;12.18;4.78;;;;;;;24.21;61.31;100291.06;10372515;28;20038;-68
2022/07/18 21:39:03;;;;;;;;;;;;;;;24.38;58.83;100290.91;10375961;28;20048;-68
2022/07/18 21:44:03;;;;;;;12.48;4.55;;;;;;;24.29;60.35;100273.44;10374192;28;19925;-69
2022/07/18 21:49:04;;;;;;;15.93;4.95;;;;;;;24.19;61.23;100285.06;10375219;28;20068;-68
2022/07/18 21:54:05;;;;;;;8.48;4.70;;;;;;;24.09;61.85;100306.69;10374936;28;20046;-68
2022/07/18 21:59:06;;;;;;;8.30;4.78;;;;;;;23.47;63.21;100259.97;10373607;28;20038;-68
2022/07/18 22:04:07;;;;;;;12.15;5.10;;;;;;;23.79;63.97;100340.59;10373230;28;20042;-68
2022/07/18 22:09:08;;;;;;;7.82;5.13;;;;;;;23.81;64.59;100332.19;10374360;28;20068;-68
2022/07/18 22:14:10;;;;;;;10.60;5.43;;;;;;;23.81;65.04;100324.91;10364279;28;20088;-68
2022/07/18 22:19:11;;;;;;;11.07;5.10;;;;;;;24.00;64.98;100332.66;10372832;28;20520;-68
2022/07/18 22:24:12;;;;;;;15.38;5.45;;;;;;;24.08;65.56;100345.75;10373380;28;20128;-68
2022/07/18 22:29:12;;;;;;;11.13;5.65;;;;;;;24.09;65.92;100359.06;10364790;28;20034;-69
2022/07/18 22:34:14;;;;;;;14.52;5.90;;;;;;;23.98;67.11;100360.03;10346911;28;20422;-68
2022/07/18 22:39:15;;;;;;;7.68;6.00;;;;;;;23.44;68.04;100284.06;10332974;28;20074;-69
2022/07/18 22:44:16;;;;;;;30.48;7.32;;;;;;;23.95;69.01;100354.31;10332266;28;20034;-68
2022/07/18 22:49:17;;;;;;;8.82;6.30;;;;;;;24.00;69.57;100357.09;10332536;28;20061;-68
2022/07/18 22:54:18;;;;;;;10.90;6.85;;;;;;;23.94;69.75;100353.50;10331517;28;20042;-69
2022/07/18 22:59:19;;;;;;;15.10;6.88;;;;;;;23.94;70.46;100353.50;10346761;28;20058;-69
2022/07/18 23:04:19;;;;;;;10.38;7.00;;;;;;;23.89;71.07;100343.41;10331960;28;20117;-68
2022/07/18 23:09:20;;;;;;;12.65;6.55;;;;;;;23.87;71.67;100339.31;10330947;28;20046;-68
2022/07/18 23:14:21;;;;;;;11.05;6.47;;;;;;;23.73;71.71;100338.91;10332104;28;20125;-68